createdAt,value
2023-02-27T00:01:34.936Z,-0.03
2023-02-27T00:05:39.422Z,-0.01
2023-02-27T00:09:51.871Z,-0.01
2023-02-27T00:14:04.273Z,-0.03
2023-02-27T00:18:17.718Z,-0.05
2023-02-27T00:22:29.959Z,-0.08
2023-02-27T00:26:42.447Z,-0.06
2023-02-27T00:30:50.269Z,-0.05
2023-02-27T00:35:01.197Z,-0.02
2023-02-27T00:39:26.849Z,0.00
2023-02-27T00:43:38.894Z,0.01
2023-02-27T00:48:01.910Z,0.03
2023-02-27T00:52:14.191Z,0.04
2023-02-27T00:56:26.611Z,0.05
2023-02-27T01:00:37.292Z,0.07
2023-02-27T01:04:49.716Z,0.09
2023-02-27T01:08:53.796Z,0.11
2023-02-27T01:13:19.760Z,0.13
2023-02-27T01:17:32.697Z,0.15
2023-02-27T01:21:44.854Z,0.17
2023-02-27T01:25:57.539Z,0.19
2023-02-27T01:30:04.105Z,0.21
2023-02-27T01:34:16.454Z,0.24
2023-02-27T01:38:28.711Z,0.25
2023-02-27T01:42:40.705Z,0.28
2023-02-27T01:46:52.781Z,0.31
2023-02-27T01:50:59.073Z,0.33
2023-02-27T01:55:11.217Z,0.35
2023-02-27T01:59:15.199Z,0.36
2023-02-27T02:03:30.098Z,0.39
2023-02-27T02:07:42.210Z,0.42
2023-02-27T02:11:54.119Z,0.43
2023-02-27T02:16:01.348Z,0.44
2023-02-27T02:20:11.970Z,0.46
2023-02-27T02:24:22.265Z,0.47
2023-02-27T02:28:40.424Z,0.48
2023-02-27T02:33:12.896Z,0.51
2023-02-27T02:37:27.748Z,0.52
2023-02-27T02:41:38.098Z,0.53
2023-02-27T02:45:50.248Z,0.54
2023-02-27T02:50:05.469Z,0.55
2023-02-27T02:54:17.634Z,0.58
2023-02-27T02:58:30.718Z,0.58
2023-02-27T03:02:55.753Z,0.58
2023-02-27T03:07:10.355Z,0.58
2023-02-27T03:11:25.456Z,0.57
2023-02-27T03:15:43.808Z,0.57
2023-02-27T03:19:59.342Z,0.57
2023-02-27T03:24:24.454Z,0.57
2023-02-27T03:28:36.302Z,0.57
2023-02-27T03:32:54.714Z,0.57
2023-02-27T03:37:06.512Z,0.57
2023-02-27T03:41:21.094Z,0.57
2023-02-27T03:45:35.690Z,0.57
2023-02-27T03:49:47.651Z,0.57
2023-02-27T03:54:02.940Z,0.56
2023-02-27T03:58:15.391Z,0.54
2023-02-27T04:02:27.993Z,0.55
2023-02-27T04:06:39.088Z,0.57
2023-02-27T04:10:57.249Z,0.57
2023-02-27T04:15:12.390Z,0.57
2023-02-27T04:19:36.990Z,0.55
2023-02-27T04:23:55.475Z,0.54
2023-02-27T04:28:07.873Z,0.53
2023-02-27T04:32:20.296Z,0.44
2023-02-27T04:36:33.514Z,0.33
2023-02-27T04:40:59.735Z,0.27
2023-02-27T04:45:14.924Z,0.27
2023-02-27T04:49:26.861Z,0.31
2023-02-27T04:53:38.592Z,0.32
2023-02-27T04:57:51.023Z,0.34
2023-02-27T05:02:15.750Z,0.34
2023-02-27T05:06:27.905Z,0.35
2023-02-27T05:10:39.902Z,0.37
2023-02-27T05:14:44.554Z,0.39
2023-02-27T05:18:56.502Z,0.41
2023-02-27T05:23:08.536Z,0.45
2023-02-27T05:27:23.580Z,0.49
2023-02-27T05:31:29.486Z,0.51
2023-02-27T05:35:44.954Z,0.54
2023-02-27T05:40:08.273Z,0.56
2023-02-27T05:44:25.840Z,0.59
2023-02-27T05:48:40.976Z,0.62
2023-02-27T05:52:52.961Z,0.65
2023-02-27T05:57:04.852Z,0.67
2023-02-27T06:01:28.998Z,0.66
2023-02-27T06:05:40.854Z,0.68
2023-02-27T06:09:53.453Z,0.68
2023-02-27T06:14:06.153Z,0.69
2023-02-27T06:18:12.628Z,0.71
2023-02-27T06:22:23.831Z,0.71
2023-02-27T06:26:36.160Z,0.72
2023-02-27T06:30:46.531Z,0.73
2023-02-27T06:34:58.535Z,0.77
2023-02-27T06:39:10.696Z,0.78
2023-02-27T06:43:22.453Z,0.80
2023-02-27T06:47:48.321Z,0.82
2023-02-27T06:52:00.429Z,0.85
2023-02-27T06:56:12.769Z,0.85
2023-02-27T07:00:38.707Z,0.87
2023-02-27T07:04:53.638Z,0.90
2023-02-27T07:09:06.523Z,0.91
2023-02-27T07:13:16.486Z,0.92
2023-02-27T07:17:30.846Z,0.97
2023-02-27T07:21:43.176Z,1.00
2023-02-27T07:25:54.831Z,1.04
2023-02-27T07:30:02.049Z,1.12
2023-02-27T07:34:13.747Z,1.19
2023-02-27T07:38:26.028Z,1.25
2023-02-27T07:42:38.340Z,1.29
2023-02-27T07:46:43.415Z,1.34
2023-02-27T07:50:56.091Z,1.40
2023-02-27T07:55:22.153Z,1.50
2023-02-27T07:59:29.151Z,1.75
2023-02-27T08:03:41.654Z,1.84
2023-02-27T08:07:53.702Z,1.88
2023-02-27T08:12:07.658Z,1.89
2023-02-27T08:16:20.744Z,1.91
2023-02-27T08:20:27.042Z,1.90
2023-02-27T08:24:31.418Z,1.89
2023-02-27T08:28:45.114Z,1.91
2023-02-27T08:32:57.752Z,1.92
2023-02-27T08:37:09.872Z,1.92
2023-02-27T08:41:22.094Z,1.97
2023-02-27T08:45:53.084Z,2.01
2023-02-27T08:49:57.555Z,2.06
2023-02-27T08:54:07.727Z,2.13
2023-02-27T08:58:19.746Z,2.22
2023-02-27T09:02:33.217Z,2.25
2023-02-27T09:06:45.909Z,2.34
2023-02-27T09:10:56.728Z,2.54
2023-02-27T09:15:08.837Z,2.76
2023-02-27T09:19:21.088Z,2.92
2023-02-27T09:23:33.023Z,2.99
2023-02-27T09:28:04.372Z,2.97
2023-02-27T09:32:15.984Z,3.00
2023-02-27T09:36:28.837Z,3.00
2023-02-27T09:40:41.383Z,2.99
2023-02-27T09:44:54.951Z,3.10
2023-02-27T09:49:09.788Z,3.19
2023-02-27T09:53:21.720Z,3.28
2023-02-27T09:57:36.529Z,3.38
2023-02-27T10:02:01.265Z,3.58
2023-02-27T10:06:07.658Z,3.84
2023-02-27T10:10:20.109Z,3.92
2023-02-27T10:14:32.033Z,3.87
2023-02-27T10:18:46.974Z,3.92
2023-02-27T10:23:12.714Z,4.08
2023-02-27T10:27:25.013Z,4.15
2023-02-27T10:31:37.367Z,4.18
2023-02-27T10:35:50.614Z,4.17
2023-02-27T10:40:02.735Z,4.14
2023-02-27T10:44:14.745Z,4.14
2023-02-27T10:48:32.120Z,4.11
2023-02-27T10:52:44.230Z,4.11
2023-02-27T10:56:55.931Z,4.07
2023-02-27T11:01:07.350Z,4.10
2023-02-27T11:05:33.610Z,4.20
2023-02-27T11:09:39.171Z,4.24
2023-02-27T11:13:50.993Z,4.31
2023-02-27T11:18:21.539Z,4.45
2023-02-27T11:22:31.207Z,4.67
2023-02-27T11:26:49.251Z,4.66
2023-02-27T11:31:04.507Z,4.70
2023-02-27T11:35:17.098Z,4.79
2023-02-27T11:39:35.393Z,4.81
2023-02-27T11:44:01.364Z,4.66
2023-02-27T11:48:13.690Z,4.65
2023-02-27T11:52:25.992Z,4.62
2023-02-27T11:56:38.672Z,4.55
2023-02-27T12:00:57.020Z,4.56
2023-02-27T12:05:15.428Z,4.49
2023-02-27T12:09:20.604Z,4.61
2023-02-27T12:13:29.676Z,4.72
2023-02-27T12:17:44.999Z,4.73
2023-02-27T12:22:11.271Z,4.76
2023-02-27T12:26:18.081Z,4.69
2023-02-27T12:30:32.381Z,4.62
2023-02-27T12:35:01.315Z,4.60
2023-02-27T12:39:08.506Z,4.54
2023-02-27T12:43:29.813Z,4.56
2023-02-27T12:47:42.534Z,4.60
2023-02-27T12:52:00.864Z,4.69
2023-02-27T12:56:25.208Z,4.77
2023-02-27T13:00:43.521Z,4.74
2023-02-27T13:04:58.913Z,4.68
2023-02-27T13:09:04.120Z,4.66
2023-02-27T13:13:16.353Z,4.52
2023-02-27T13:17:28.347Z,4.36
2023-02-27T13:21:41.191Z,4.29
2023-02-27T13:26:05.911Z,4.32
2023-02-27T13:30:20.330Z,4.42
2023-02-27T13:34:35.624Z,4.47
2023-02-27T13:38:46.714Z,4.39
2023-02-27T13:43:10.965Z,4.30
2023-02-27T13:47:39.938Z,4.13
2023-02-27T13:51:51.661Z,4.12
2023-02-27T13:56:17.533Z,4.09
2023-02-27T14:00:33.013Z,4.07
2023-02-27T14:04:40.095Z,4.05
2023-02-27T14:13:17.813Z,4.01
2023-02-27T14:17:31.351Z,4.00
2023-02-27T14:26:33.557Z,3.87
2023-02-27T14:30:49.022Z,3.82
2023-02-27T14:35:02.705Z,3.71
2023-02-27T14:39:13.473Z,3.63
2023-02-27T14:43:17.763Z,3.54
2023-02-27T14:47:33.398Z,3.51
2023-02-27T14:51:46.303Z,3.52
2023-02-27T14:55:57.004Z,3.48
2023-02-27T15:00:20.807Z,3.42
2023-02-27T15:04:32.108Z,3.33
2023-02-27T15:13:11.860Z,3.19
2023-02-27T15:17:25.505Z,3.14
2023-02-27T15:21:36.115Z,3.08
2023-02-27T15:36:25.788Z,3.46
2023-02-27T15:39:30.320Z,3.44
2023-02-27T15:43:04.716Z,3.33
2023-02-27T15:47:00.767Z,3.27
2023-02-27T15:50:27.614Z,3.22
2023-02-27T15:54:00.559Z,3.12
2023-02-27T15:57:35.992Z,3.01
2023-02-27T16:01:19.171Z,2.94
2023-02-27T16:04:50.827Z,2.86
2023-02-27T16:08:30.029Z,2.77
2023-02-27T16:12:33.316Z,2.71
2023-02-27T16:15:43.465Z,2.67
2023-02-27T16:19:33.171Z,2.63
2023-02-27T16:23:27.573Z,2.54
2023-02-27T16:26:37.245Z,2.43
2023-02-27T16:30:16.409Z,2.27
2023-02-27T16:33:52.423Z,2.20
2023-02-27T16:37:40.913Z,2.15
2023-02-27T16:41:11.061Z,2.07
2023-02-27T16:44:44.242Z,2.02
2023-02-27T16:48:22.731Z,1.95
2023-02-27T16:52:01.318Z,1.87
2023-02-27T16:55:43.699Z,1.83
2023-02-27T16:59:37.804Z,1.75
2023-02-27T17:02:52.985Z,1.69
2023-02-27T17:06:30.618Z,1.62
2023-02-27T17:10:09.153Z,1.51
2023-02-27T17:14:04.713Z,1.45
2023-02-27T17:17:23.721Z,1.43
2023-02-27T17:21:03.568Z,1.40
2023-02-27T17:24:39.333Z,1.36
2023-02-27T17:28:16.480Z,1.26
2023-02-27T17:31:54.602Z,1.20
2023-02-27T17:35:32.268Z,1.13
2023-02-27T17:39:12.575Z,1.07
2023-02-27T17:42:47.670Z,1.02
2023-02-27T17:46:35.226Z,0.96
2023-02-27T17:50:21.529Z,0.85
2023-02-27T17:53:40.747Z,0.82
2023-02-27T17:57:17.813Z,0.77
2023-02-27T18:00:55.712Z,0.73
2023-02-27T18:04:33.587Z,0.71
2023-02-27T18:08:10.966Z,0.66
2023-02-27T18:11:48.566Z,0.61
2023-02-27T18:15:26.481Z,0.56
2023-02-27T18:19:06.405Z,0.53
2023-02-27T18:22:41.711Z,0.49
2023-02-27T18:26:29.853Z,0.47
2023-02-27T18:29:57.751Z,0.43
2023-02-27T18:33:34.669Z,0.40
2023-02-27T18:37:12.177Z,0.37
2023-02-27T18:40:51.030Z,0.34
2023-02-27T18:44:27.543Z,0.30
2023-02-27T18:48:05.744Z,0.29
2023-02-27T18:51:44.548Z,0.26
2023-02-27T18:55:39.666Z,0.26
2023-02-27T18:59:02.287Z,0.26
2023-02-27T19:02:41.780Z,0.23
2023-02-27T19:06:14.013Z,0.19
2023-02-27T19:09:51.522Z,0.16
2023-02-27T19:13:29.465Z,0.14
2023-02-27T19:17:25.686Z,0.12
2023-02-27T19:20:44.792Z,0.12
2023-02-27T19:24:23.503Z,0.07
2023-02-27T19:28:00.531Z,0.03
2023-02-27T19:31:56.247Z,0.02
2023-02-27T19:35:34.368Z,-0.01
2023-02-27T19:38:53.210Z,-0.06
2023-02-27T19:42:30.753Z,-0.14
2023-02-27T19:46:30.911Z,-0.20
2023-02-27T19:49:45.780Z,-0.26
2023-02-27T19:53:45.502Z,-0.31
2023-02-27T19:57:01.973Z,-0.34
2023-02-27T20:00:40.950Z,-0.36
2023-02-27T20:04:17.961Z,-0.37
2023-02-27T20:07:53.912Z,-0.42
2023-02-27T20:11:32.561Z,-0.46
2023-02-27T20:15:11.807Z,-0.46
2023-02-27T20:18:46.942Z,-0.50
2023-02-27T20:22:24.254Z,-0.53
2023-02-27T20:26:48.046Z,-0.52
2023-02-27T20:30:14.406Z,-0.53
2023-02-27T20:46:05.376Z,0.01
2023-02-27T21:05:27.343Z,0.17
2023-02-27T21:09:32.150Z,0.04
2023-02-27T21:12:53.560Z,-0.04
2023-02-27T21:16:35.637Z,-0.15
2023-02-27T21:20:11.216Z,-0.26
2023-02-27T21:23:54.527Z,-0.35
2023-02-27T21:27:25.696Z,-0.42
2023-02-27T21:32:21.365Z,-0.45
2023-02-27T21:46:08.506Z,-0.06
2023-02-27T21:49:37.837Z,-0.10
2023-02-27T21:53:00.974Z,-0.27
2023-02-27T21:56:38.728Z,-0.43
2023-02-27T22:00:28.925Z,-0.52
2023-02-27T22:04:04.058Z,-0.61
2023-02-27T22:08:16.008Z,-0.66
2023-02-27T22:11:22.306Z,-0.71
2023-02-27T22:15:07.849Z,-0.74
2023-02-27T22:18:39.216Z,-0.80
2023-02-27T22:22:10.100Z,-0.83
2023-02-27T22:26:10.062Z,-0.87
2023-02-27T22:30:04.517Z,-0.87
2023-02-27T22:34:09.462Z,-0.89
2023-02-27T22:37:14.097Z,-0.93
2023-02-27T22:41:23.032Z,-0.92
2023-02-27T22:45:20.959Z,-0.91
2023-02-27T22:49:07.046Z,-0.91
2023-02-27T22:52:22.509Z,-0.92
2023-02-27T22:56:00.809Z,-0.93
2023-02-27T22:59:28.044Z,-0.93
2023-02-27T23:03:02.974Z,-0.94
2023-02-27T23:06:42.124Z,-0.93
2023-02-27T23:10:19.580Z,-0.96
2023-02-27T23:13:57.871Z,-0.96
2023-02-27T23:17:57.620Z,-0.98
2023-02-27T23:21:17.891Z,-1.02
2023-02-27T23:25:00.864Z,-1.05
2023-02-27T23:28:31.176Z,-1.07
2023-02-27T23:32:09.926Z,-1.07
2023-02-27T23:35:48.669Z,-1.09
2023-02-27T23:39:25.202Z,-1.12
2023-02-27T23:43:00.929Z,-1.15
2023-02-27T23:46:42.308Z,-1.15
2023-02-27T23:53:56.512Z,-1.21
2023-02-27T23:57:36.679Z,-1.24
